sensor_id;sensor_type;location;lat;lon;timestamp;pressure;altitude;pressure_sealevel;temperature;humidity
81155;BME280;70631;50.436;7.826;2024-02-26T00:01:12;97369.59;;;6.48;66.73
81155;BME280;70631;50.436;7.826;2024-02-26T00:03:37;97365.97;;;6.57;66.59
81155;BME280;70631;50.436;7.826;2024-02-26T00:06:04;97363.00;;;6.60;66.71
81155;BME280;70631;50.436;7.826;2024-02-26T00:08:29;97350.09;;;6.65;66.81
81155;BME280;70631;50.436;7.826;2024-02-26T00:10:54;97355.72;;;6.70;66.25
81155;BME280;70631;50.436;7.826;2024-02-26T00:13:20;97343.47;;;6.69;66.21
81155;BME280;70631;50.436;7.826;2024-02-26T00:15:45;97344.31;;;6.70;66.28
81155;BME280;70631;50.436;7.826;2024-02-26T00:18:11;97335.03;;;6.66;66.48
81155;BME280;70631;50.436;7.826;2024-02-26T00:20:36;97343.81;;;6.58;66.44
81155;BME280;70631;50.436;7.826;2024-02-26T00:23:01;97343.13;;;6.48;67.12
81155;BME280;70631;50.436;7.826;2024-02-26T00:25:27;97339.81;;;6.38;67.27
81155;BME280;70631;50.436;7.826;2024-02-26T00:27:52;97332.00;;;6.28;67.59
81155;BME280;70631;50.436;7.826;2024-02-26T00:30:17;97328.53;;;6.20;67.73
81155;BME280;70631;50.436;7.826;2024-02-26T00:32:42;97333.81;;;6.11;68.20
81155;BME280;70631;50.436;7.826;2024-02-26T00:35:08;97320.56;;;6.03;68.75
81155;BME280;70631;50.436;7.826;2024-02-26T00:37:34;97315.28;;;6.03;68.60
81155;BME280;70631;50.436;7.826;2024-02-26T00:40:00;97313.63;;;6.02;69.05
81155;BME280;70631;50.436;7.826;2024-02-26T00:42:25;97306.50;;;6.03;69.22
81155;BME280;70631;50.436;7.826;2024-02-26T00:44:50;97306.00;;;5.99;68.99
81155;BME280;70631;50.436;7.826;2024-02-26T00:47:16;97294.78;;;5.97;69.00
81155;BME280;70631;50.436;7.826;2024-02-26T00:49:41;97298.75;;;6.01;69.33
81155;BME280;70631;50.436;7.826;2024-02-26T00:52:06;97284.38;;;6.04;69.06
81155;BME280;70631;50.436;7.826;2024-02-26T00:54:31;97281.28;;;6.08;69.25
81155;BME280;70631;50.436;7.826;2024-02-26T00:56:57;97277.97;;;6.15;69.41
81155;BME280;70631;50.436;7.826;2024-02-26T00:59:22;97274.00;;;6.19;69.40
81155;BME280;70631;50.436;7.826;2024-02-26T01:01:47;97276.00;;;6.25;69.24
81155;BME280;70631;50.436;7.826;2024-02-26T01:04:12;97268.41;;;6.30;69.06
81155;BME280;70631;50.436;7.826;2024-02-26T01:06:38;97261.63;;;6.35;68.91
81155;BME280;70631;50.436;7.826;2024-02-26T01:09:03;97255.69;;;6.41;68.81
81155;BME280;70631;50.436;7.826;2024-02-26T01:11:28;97284.28;;;6.46;69.09
81155;BME280;70631;50.436;7.826;2024-02-26T01:13:54;97283.94;;;6.49;69.03
81155;BME280;70631;50.436;7.826;2024-02-26T01:16:22;97277.00;;;6.48;69.04
81155;BME280;70631;50.436;7.826;2024-02-26T01:18:47;97252.38;;;6.48;69.49
81155;BME280;70631;50.436;7.826;2024-02-26T01:21:13;97272.53;;;6.40;69.38
81155;BME280;70631;50.436;7.826;2024-02-26T01:23:38;97264.59;;;6.32;69.44
81155;BME280;70631;50.436;7.826;2024-02-26T01:26:03;97259.78;;;6.28;70.00
81155;BME280;70631;50.436;7.826;2024-02-26T01:28:29;97270.38;;;6.28;70.12
81155;BME280;70631;50.436;7.826;2024-02-26T01:30:55;97257.97;;;6.28;70.05
81155;BME280;70631;50.436;7.826;2024-02-26T01:33:20;97276.34;;;6.30;70.52
81155;BME280;70631;50.436;7.826;2024-02-26T01:35:45;97286.94;;;6.30;70.75
81155;BME280;70631;50.436;7.826;2024-02-26T01:38:11;97292.50;;;6.27;70.96
81155;BME280;70631;50.436;7.826;2024-02-26T01:40:37;97290.03;;;6.25;71.14
81155;BME280;70631;50.436;7.826;2024-02-26T01:43:02;97276.81;;;6.25;71.48
81155;BME280;70631;50.436;7.826;2024-02-26T01:45:27;97265.59;;;6.31;70.97
81155;BME280;70631;50.436;7.826;2024-02-26T01:47:54;97285.09;;;6.38;71.00
81155;BME280;70631;50.436;7.826;2024-02-26T01:50:20;97270.56;;;6.42;71.20
81155;BME280;70631;50.436;7.826;2024-02-26T01:52:47;97273.53;;;6.48;71.30
81155;BME280;70631;50.436;7.826;2024-02-26T01:55:14;97288.22;;;6.50;71.27
81155;BME280;70631;50.436;7.826;2024-02-26T01:57:41;97278.84;;;6.56;71.13
81155;BME280;70631;50.436;7.826;2024-02-26T02:00:07;97274.69;;;6.61;70.68
81155;BME280;70631;50.436;7.826;2024-02-26T02:02:33;97279.66;;;6.64;70.62
81155;BME280;70631;50.436;7.826;2024-02-26T02:04:59;97279.31;;;6.67;70.50
81155;BME280;70631;50.436;7.826;2024-02-26T02:07:25;97285.91;;;6.71;70.90
81155;BME280;70631;50.436;7.826;2024-02-26T02:09:51;97275.03;;;6.74;70.68
81155;BME280;70631;50.436;7.826;2024-02-26T02:12:16;97269.06;;;6.81;70.33
81155;BME280;70631;50.436;7.826;2024-02-26T02:14:42;97257.97;;;6.85;70.39
81155;BME280;70631;50.436;7.826;2024-02-26T02:17:07;97266.38;;;6.89;70.43
81155;BME280;70631;50.436;7.826;2024-02-26T02:19:32;97264.41;;;6.91;70.53
81155;BME280;70631;50.436;7.826;2024-02-26T02:21:58;97259.63;;;6.94;70.24
81155;BME280;70631;50.436;7.826;2024-02-26T02:24:23;97279.81;;;6.95;70.48
81155;BME280;70631;50.436;7.826;2024-02-26T02:26:48;97269.03;;;6.97;69.82
81155;BME280;70631;50.436;7.826;2024-02-26T02:29:14;97284.94;;;6.97;69.71
81155;BME280;70631;50.436;7.826;2024-02-26T02:31:39;97277.16;;;6.95;70.15
81155;BME280;70631;50.436;7.826;2024-02-26T02:34:05;97289.22;;;6.98;69.75
81155;BME280;70631;50.436;7.826;2024-02-26T02:36:30;97297.00;;;6.91;69.78
81155;BME280;70631;50.436;7.826;2024-02-26T02:38:55;97285.75;;;6.89;69.64
81155;BME280;70631;50.436;7.826;2024-02-26T02:41:21;97290.56;;;6.86;69.12
81155;BME280;70631;50.436;7.826;2024-02-26T02:43:46;97285.25;;;6.86;69.25
81155;BME280;70631;50.436;7.826;2024-02-26T02:46:12;97275.66;;;6.85;69.28
81155;BME280;70631;50.436;7.826;2024-02-26T02:48:37;97277.31;;;6.86;68.99
81155;BME280;70631;50.436;7.826;2024-02-26T02:51:04;97271.38;;;6.84;68.86
81155;BME280;70631;50.436;7.826;2024-02-26T02:53:29;97267.91;;;6.83;68.81
81155;BME280;70631;50.436;7.826;2024-02-26T02:55:55;97265.72;;;6.87;68.20
81155;BME280;70631;50.436;7.826;2024-02-26T02:58:20;97264.25;;;6.84;68.19
81155;BME280;70631;50.436;7.826;2024-02-26T03:00:45;97284.13;;;6.80;68.49
81155;BME280;70631;50.436;7.826;2024-02-26T03:03:10;97287.25;;;6.76;68.09
81155;BME280;70631;50.436;7.826;2024-02-26T03:05:36;97308.44;;;6.76;68.24
81155;BME280;70631;50.436;7.826;2024-02-26T03:08:01;97317.19;;;6.68;68.09
81155;BME280;70631;50.436;7.826;2024-02-26T03:10:26;97318.03;;;6.60;68.52
81155;BME280;70631;50.436;7.826;2024-02-26T03:12:53;97311.91;;;6.52;69.32
81155;BME280;70631;50.436;7.826;2024-02-26T03:15:19;97308.25;;;6.36;69.93
81155;BME280;70631;50.436;7.826;2024-02-26T03:17:44;97298.47;;;6.21;70.27
81155;BME280;70631;50.436;7.826;2024-02-26T03:20:09;97309.03;;;6.12;70.54
81155;BME280;70631;50.436;7.826;2024-02-26T03:22:35;97296.44;;;6.06;71.03
81155;BME280;70631;50.436;7.826;2024-02-26T03:25:00;97304.88;;;6.02;71.48
81155;BME280;70631;50.436;7.826;2024-02-26T03:27:26;97308.00;;;5.97;71.62
81155;BME280;70631;50.436;7.826;2024-02-26T03:29:51;97311.75;;;5.87;71.90
81155;BME280;70631;50.436;7.826;2024-02-26T03:32:17;97306.22;;;5.72;72.79
81155;BME280;70631;50.436;7.826;2024-02-26T03:34:43;97323.00;;;5.55;73.35
81155;BME280;70631;50.436;7.826;2024-02-26T03:37:08;97327.56;;;5.44;74.41
81155;BME280;70631;50.436;7.826;2024-02-26T03:39:35;97327.50;;;5.36;74.97
81155;BME280;70631;50.436;7.826;2024-02-26T03:42:01;97324.00;;;5.28;75.51
81155;BME280;70631;50.436;7.826;2024-02-26T03:44:27;97319.81;;;5.17;75.77
81155;BME280;70631;50.436;7.826;2024-02-26T03:46:52;97319.78;;;5.09;76.13
81155;BME280;70631;50.436;7.826;2024-02-26T03:49:17;97317.44;;;5.06;76.93
81155;BME280;70631;50.436;7.826;2024-02-26T03:51:43;97323.03;;;5.03;77.01
81155;BME280;70631;50.436;7.826;2024-02-26T03:54:08;97319.03;;;4.99;77.42
81155;BME280;70631;50.436;7.826;2024-02-26T03:56:33;97325.16;;;4.99;77.96
81155;BME280;70631;50.436;7.826;2024-02-26T03:58:58;97316.69;;;4.96;77.76
81155;BME280;70631;50.436;7.826;2024-02-26T04:01:26;97315.34;;;4.91;78.24
81155;BME280;70631;50.436;7.826;2024-02-26T04:03:51;97309.06;;;4.84;78.47
81155;BME280;70631;50.436;7.826;2024-02-26T04:06:17;97312.38;;;4.86;78.19
81155;BME280;70631;50.436;7.826;2024-02-26T04:08:44;97312.53;;;4.85;78.62
81155;BME280;70631;50.436;7.826;2024-02-26T04:11:09;97311.03;;;4.82;78.92
81155;BME280;70631;50.436;7.826;2024-02-26T04:13:35;97304.41;;;4.78;79.15
81155;BME280;70631;50.436;7.826;2024-02-26T04:16:03;97309.69;;;4.78;79.41
81155;BME280;70631;50.436;7.826;2024-02-26T04:18:29;97307.31;;;4.75;79.08
81155;BME280;70631;50.436;7.826;2024-02-26T04:20:54;97312.22;;;4.70;79.34
81155;BME280;70631;50.436;7.826;2024-02-26T04:23:19;97305.31;;;4.69;79.76
81155;BME280;70631;50.436;7.826;2024-02-26T04:25:45;97316.22;;;4.74;79.34
81155;BME280;70631;50.436;7.826;2024-02-26T04:28:10;97314.72;;;4.72;79.46
81155;BME280;70631;50.436;7.826;2024-02-26T04:30:36;97312.22;;;4.70;79.95
81155;BME280;70631;50.436;7.826;2024-02-26T04:33:01;97327.75;;;4.73;80.33
81155;BME280;70631;50.436;7.826;2024-02-26T04:35:27;97323.75;;;4.69;79.98
81155;BME280;70631;50.436;7.826;2024-02-26T04:37:52;97331.69;;;4.69;80.57
81155;BME280;70631;50.436;7.826;2024-02-26T04:40:17;97332.19;;;4.73;80.00
81155;BME280;70631;50.436;7.826;2024-02-26T04:42:43;97335.97;;;4.70;80.66
81155;BME280;70631;50.436;7.826;2024-02-26T04:45:08;97332.00;;;4.66;80.54
81155;BME280;70631;50.436;7.826;2024-02-26T04:47:34;97331.16;;;4.66;80.80
81155;BME280;70631;50.436;7.826;2024-02-26T04:49:59;97330.34;;;4.65;80.99
81155;BME280;70631;50.436;7.826;2024-02-26T04:52:25;97335.25;;;4.60;80.41
81155;BME280;70631;50.436;7.826;2024-02-26T04:54:50;97337.88;;;4.60;81.08
81155;BME280;70631;50.436;7.826;2024-02-26T04:57:16;97334.84;;;4.55;81.19
81155;BME280;70631;50.436;7.826;2024-02-26T04:59:43;97332.09;;;4.56;81.75
81155;BME280;70631;50.436;7.826;2024-02-26T05:02:10;97333.59;;;4.59;81.60
81155;BME280;70631;50.436;7.826;2024-02-26T05:04:35;97336.53;;;4.56;81.88
81155;BME280;70631;50.436;7.826;2024-02-26T05:07:00;97340.81;;;4.57;81.92
81155;BME280;70631;50.436;7.826;2024-02-26T05:09:25;97334.56;;;4.58;81.77
81155;BME280;70631;50.436;7.826;2024-02-26T05:11:51;97336.22;;;4.59;82.28
81155;BME280;70631;50.436;7.826;2024-02-26T05:14:16;97339.53;;;4.61;82.15
81155;BME280;70631;50.436;7.826;2024-02-26T05:16:41;97331.78;;;4.59;82.46
81155;BME280;70631;50.436;7.826;2024-02-26T05:19:06;97334.56;;;4.58;82.21
81155;BME280;70631;50.436;7.826;2024-02-26T05:21:32;97331.63;;;4.61;82.62
81155;BME280;70631;50.436;7.826;2024-02-26T05:23:58;97333.94;;;4.64;82.60
81155;BME280;70631;50.436;7.826;2024-02-26T05:26:24;97338.41;;;4.64;82.44
81155;BME280;70631;50.436;7.826;2024-02-26T05:28:49;97339.22;;;4.64;82.56
81155;BME280;70631;50.436;7.826;2024-02-26T05:31:16;97332.97;;;4.65;82.93
81155;BME280;70631;50.436;7.826;2024-02-26T05:33:41;97332.28;;;4.63;82.75
81155;BME280;70631;50.436;7.826;2024-02-26T05:36:06;97333.94;;;4.64;83.12
81155;BME280;70631;50.436;7.826;2024-02-26T05:38:32;97333.94;;;4.64;82.81
81155;BME280;70631;50.436;7.826;2024-02-26T05:40:58;97333.66;;;4.67;83.12
81155;BME280;70631;50.436;7.826;2024-02-26T05:43:24;97335.31;;;4.68;82.80
81155;BME280;70631;50.436;7.826;2024-02-26T05:45:50;97339.59;;;4.69;82.92
81155;BME280;70631;50.436;7.826;2024-02-26T05:48:15;97337.31;;;4.74;83.32
81155;BME280;70631;50.436;7.826;2024-02-26T05:50:40;97340.19;;;4.81;83.22
81155;BME280;70631;50.436;7.826;2024-02-26T05:53:05;97346.97;;;4.83;83.05
81155;BME280;70631;50.436;7.826;2024-02-26T05:55:31;97341.03;;;4.81;83.24
81155;BME280;70631;50.436;7.826;2024-02-26T05:57:56;97351.06;;;4.78;82.81
81155;BME280;70631;50.436;7.826;2024-02-26T06:00:21;97344.66;;;4.80;83.06
81155;BME280;70631;50.436;7.826;2024-02-26T06:02:46;97350.44;;;4.84;83.07
81155;BME280;70631;50.436;7.826;2024-02-26T06:05:12;97347.66;;;4.85;83.07
81155;BME280;70631;50.436;7.826;2024-02-26T06:07:37;97353.22;;;4.82;83.16
81155;BME280;70631;50.436;7.826;2024-02-26T06:10:03;97359.09;;;4.76;83.45
81155;BME280;70631;50.436;7.826;2024-02-26T06:12:29;97354.66;;;4.77;83.45
81155;BME280;70631;50.436;7.826;2024-02-26T06:14:55;97358.50;;;4.82;83.21
81155;BME280;70631;50.436;7.826;2024-02-26T06:17:21;97366.56;;;4.81;83.64
81155;BME280;70631;50.436;7.826;2024-02-26T06:19:46;97367.41;;;4.81;83.92
81155;BME280;70631;50.436;7.826;2024-02-26T06:22:11;97375.47;;;4.80;83.89
81155;BME280;70631;50.436;7.826;2024-02-26T06:24:37;97378.38;;;4.77;83.91
81155;BME280;70631;50.436;7.826;2024-02-26T06:27:03;97382.56;;;4.79;83.88
81155;BME280;70631;50.436;7.826;2024-02-26T06:29:28;97383.22;;;4.81;83.96
81155;BME280;70631;50.436;7.826;2024-02-26T06:31:53;97385.19;;;4.79;84.22
81155;BME280;70631;50.436;7.826;2024-02-26T06:34:18;97392.13;;;4.80;83.99
81155;BME280;70631;50.436;7.826;2024-02-26T06:36:44;97391.47;;;4.78;83.93
81155;BME280;70631;50.436;7.826;2024-02-26T06:39:09;97399.22;;;4.80;84.55
81155;BME280;70631;50.436;7.826;2024-02-26T06:41:35;97396.72;;;4.78;84.51
81155;BME280;70631;50.436;7.826;2024-02-26T06:44:01;97404.50;;;4.80;84.12
81155;BME280;70631;50.436;7.826;2024-02-26T06:46:27;97410.59;;;4.80;84.09
81155;BME280;70631;50.436;7.826;2024-02-26T06:48:55;97409.63;;;4.81;84.43
81155;BME280;70631;50.436;7.826;2024-02-26T06:51:21;97410.59;;;4.80;84.36
81155;BME280;70631;50.436;7.826;2024-02-26T06:53:46;97422.81;;;4.81;84.64
81155;BME280;70631;50.436;7.826;2024-02-26T06:56:11;97417.38;;;4.83;84.12
81155;BME280;70631;50.436;7.826;2024-02-26T06:58:36;97429.44;;;4.85;84.30
81155;BME280;70631;50.436;7.826;2024-02-26T07:01:02;97423.84;;;4.88;84.43
81155;BME280;70631;50.436;7.826;2024-02-26T07:03:27;97439.00;;;4.86;84.36
81155;BME280;70631;50.436;7.826;2024-02-26T07:05:53;97432.38;;;4.82;84.23
81155;BME280;70631;50.436;7.826;2024-02-26T07:08:18;97427.94;;;4.83;84.07
81155;BME280;70631;50.436;7.826;2024-02-26T07:10:44;97436.31;;;4.78;84.31
81155;BME280;70631;50.436;7.826;2024-02-26T07:13:09;97434.66;;;4.77;84.08
81155;BME280;70631;50.436;7.826;2024-02-26T07:15:34;97434.91;;;4.74;84.60
81155;BME280;70631;50.436;7.826;2024-02-26T07:18:00;97440.19;;;4.74;84.25
81155;BME280;70631;50.436;7.826;2024-02-26T07:20:31;97441.31;;;4.72;84.70
81155;BME280;70631;50.436;7.826;2024-02-26T07:22:57;97446.91;;;4.69;84.58
81155;BME280;70631;50.436;7.826;2024-02-26T07:25:22;97449.41;;;4.70;85.05
81155;BME280;70631;50.436;7.826;2024-02-26T07:27:49;97457.31;;;4.70;85.15
81155;BME280;70631;50.436;7.826;2024-02-26T07:30:14;97452.41;;;4.75;85.21
81155;BME280;70631;50.436;7.826;2024-02-26T07:32:41;97449.91;;;4.74;84.83
81155;BME280;70631;50.436;7.826;2024-02-26T07:35:07;97445.19;;;4.77;85.39
81155;BME280;70631;50.436;7.826;2024-02-26T07:37:32;97462.44;;;4.89;84.95
81155;BME280;70631;50.436;7.826;2024-02-26T07:39:57;97463.13;;;4.91;84.67
81155;BME280;70631;50.436;7.826;2024-02-26T07:42:23;97462.50;;;4.98;84.57
81155;BME280;70631;50.436;7.826;2024-02-26T07:44:48;97462.25;;;5.01;84.64
81155;BME280;70631;50.436;7.826;2024-02-26T07:47:13;97461.69;;;4.97;84.69
81155;BME280;70631;50.436;7.826;2024-02-26T07:49:39;97462.00;;;4.94;84.50
81155;BME280;70631;50.436;7.826;2024-02-26T07:52:04;97460.84;;;4.97;84.62
81155;BME280;70631;50.436;7.826;2024-02-26T07:54:30;97471.13;;;5.00;84.70
81155;BME280;70631;50.436;7.826;2024-02-26T07:56:55;97463.59;;;5.05;84.78
81155;BME280;70631;50.436;7.826;2024-02-26T07:59:20;97463.94;;;5.10;84.76
81155;BME280;70631;50.436;7.826;2024-02-26T08:01:51;97467.56;;;5.09;84.63
81155;BME280;70631;50.436;7.826;2024-02-26T08:04:17;97469.38;;;5.08;84.65
81155;BME280;70631;50.436;7.826;2024-02-26T08:06:42;97461.00;;;5.13;84.58
81155;BME280;70631;50.436;7.826;2024-02-26T08:09:08;97470.75;;;5.12;84.37
81155;BME280;70631;50.436;7.826;2024-02-26T08:11:33;97477.38;;;5.16;84.65
81155;BME280;70631;50.436;7.826;2024-02-26T08:13:59;97477.22;;;5.18;84.30
81155;BME280;70631;50.436;7.826;2024-02-26T08:16:24;97482.22;;;5.21;84.37
81155;BME280;70631;50.436;7.826;2024-02-26T08:18:49;97486.50;;;5.22;84.26
81155;BME280;70631;50.436;7.826;2024-02-26T08:21:15;97499.00;;;5.20;84.14
81155;BME280;70631;50.436;7.826;2024-02-26T08:23:40;97499.31;;;5.17;84.40
81155;BME280;70631;50.436;7.826;2024-02-26T08:26:05;97495.53;;;5.19;84.69
81155;BME280;70631;50.436;7.826;2024-02-26T08:28:32;97500.81;;;5.19;83.98
81155;BME280;70631;50.436;7.826;2024-02-26T08:30:57;97501.28;;;5.15;84.52
81155;BME280;70631;50.436;7.826;2024-02-26T08:33:23;97498.56;;;5.07;84.35
81155;BME280;70631;50.436;7.826;2024-02-26T08:35:48;97510.41;;;5.03;84.50
81155;BME280;70631;50.436;7.826;2024-02-26T08:38:14;97502.94;;;4.98;84.70
81155;BME280;70631;50.436;7.826;2024-02-26T08:40:39;97511.66;;;4.99;84.66
81155;BME280;70631;50.436;7.826;2024-02-26T08:43:04;97509.91;;;4.99;85.03
81155;BME280;70631;50.436;7.826;2024-02-26T08:45:29;97509.91;;;4.99;84.98
81155;BME280;70631;50.436;7.826;2024-02-26T08:47:55;97513.38;;;5.00;84.73
81155;BME280;70631;50.436;7.826;2024-02-26T08:50:20;97513.47;;;4.98;85.18
81155;BME280;70631;50.436;7.826;2024-02-26T08:52:45;97517.94;;;4.98;84.91
81155;BME280;70631;50.436;7.826;2024-02-26T08:55:15;97522.53;;;4.96;84.74
81155;BME280;70631;50.436;7.826;2024-02-26T08:57:40;97520.56;;;4.98;85.21
81155;BME280;70631;50.436;7.826;2024-02-26T09:00:06;97530.84;;;5.01;85.29
81155;BME280;70631;50.436;7.826;2024-02-26T09:02:32;97525.28;;;5.04;85.17
81155;BME280;70631;50.436;7.826;2024-02-26T09:04:57;97515.41;;;5.06;84.72
81155;BME280;70631;50.436;7.826;2024-02-26T09:07:22;97525.13;;;5.05;84.83
81155;BME280;70631;50.436;7.826;2024-02-26T09:09:48;97521.34;;;5.08;85.18
81155;BME280;70631;50.436;7.826;2024-02-26T09:12:13;97538.22;;;5.15;84.88
81155;BME280;70631;50.436;7.826;2024-02-26T09:14:38;97530.16;;;5.16;85.07
81155;BME280;70631;50.436;7.826;2024-02-26T09:17:04;97538.75;;;5.18;84.96
81155;BME280;70631;50.436;7.826;2024-02-26T09:19:30;97544.03;;;5.18;84.62
81155;BME280;70631;50.436;7.826;2024-02-26T09:21:56;97537.94;;;5.18;84.70
81155;BME280;70631;50.436;7.826;2024-02-26T09:24:23;97539.59;;;5.19;84.99
81155;BME280;70631;50.436;7.826;2024-02-26T09:26:49;97532.06;;;5.24;84.78
81155;BME280;70631;50.436;7.826;2024-02-26T09:29:14;97526.47;;;5.27;85.09
81155;BME280;70631;50.436;7.826;2024-02-26T09:31:39;97531.47;;;5.30;84.74
81155;BME280;70631;50.436;7.826;2024-02-26T09:34:06;97535.53;;;5.25;84.58
81155;BME280;70631;50.436;7.826;2024-02-26T09:36:31;97535.69;;;5.23;85.16
81155;BME280;70631;50.436;7.826;2024-02-26T09:38:57;97544.28;;;5.25;84.75
81155;BME280;70631;50.436;7.826;2024-02-26T09:41:22;97549.25;;;5.28;85.17
81155;BME280;70631;50.436;7.826;2024-02-26T09:43:48;97546.38;;;5.39;85.31
81155;BME280;70631;50.436;7.826;2024-02-26T09:46:15;97563.00;;;5.49;85.00
81155;BME280;70631;50.436;7.826;2024-02-26T09:48:43;97556.72;;;5.50;84.75
81155;BME280;70631;50.436;7.826;2024-02-26T09:51:11;97556.41;;;5.53;84.83
81155;BME280;70631;50.436;7.826;2024-02-26T09:53:38;97562.53;;;5.54;84.80
81155;BME280;70631;50.436;7.826;2024-02-26T09:56:06;97570.97;;;5.58;84.27
81155;BME280;70631;50.436;7.826;2024-02-26T09:58:32;97566.53;;;5.58;84.66
81155;BME280;70631;50.436;7.826;2024-02-26T10:01:00;97566.31;;;5.69;84.80
81155;BME280;70631;50.436;7.826;2024-02-26T10:03:43;97560.03;;;5.70;84.51
81155;BME280;70631;50.436;7.826;2024-02-26T10:06:13;97556.28;;;5.81;84.65
81155;BME280;70631;50.436;7.826;2024-02-26T10:08:39;97557.81;;;5.83;84.16
81155;BME280;70631;50.436;7.826;2024-02-26T10:11:06;97566.19;;;5.79;84.41
81155;BME280;70631;50.436;7.826;2024-02-26T10:13:32;97559.94;;;5.80;84.24
81155;BME280;70631;50.436;7.826;2024-02-26T10:15:57;97568.09;;;5.87;84.13
81155;BME280;70631;50.436;7.826;2024-02-26T10:18:23;97569.91;;;5.86;84.47
81155;BME280;70631;50.436;7.826;2024-02-26T10:20:59;97575.19;;;5.86;84.41
81155;BME280;70631;50.436;7.826;2024-02-26T10:23:26;97571.84;;;5.84;84.36
81155;BME280;70631;50.436;7.826;2024-02-26T10:25:54;97574.63;;;5.82;84.57
81155;BME280;70631;50.436;7.826;2024-02-26T10:28:20;97591.31;;;5.83;84.94
81155;BME280;70631;50.436;7.826;2024-02-26T10:30:45;97596.34;;;5.86;85.08
81155;BME280;70631;50.436;7.826;2024-02-26T10:33:11;97592.94;;;5.94;84.66
81155;BME280;70631;50.436;7.826;2024-02-26T10:35:38;97587.03;;;6.00;84.64
81155;BME280;70631;50.436;7.826;2024-02-26T10:38:06;97591.19;;;6.02;84.06
81155;BME280;70631;50.436;7.826;2024-02-26T10:40:32;97586.63;;;6.12;84.52
81155;BME280;70631;50.436;7.826;2024-02-26T10:42:58;97591.13;;;6.20;84.08
81155;BME280;70631;50.436;7.826;2024-02-26T10:45:23;97589.69;;;6.26;84.11
81155;BME280;70631;50.436;7.826;2024-02-26T10:47:48;97594.97;;;6.26;84.00
81155;BME280;70631;50.436;7.826;2024-02-26T10:50:14;97595.97;;;6.25;84.01
81155;BME280;70631;50.436;7.826;2024-02-26T10:52:42;97604.56;;;6.27;84.03
81155;BME280;70631;50.436;7.826;2024-02-26T10:55:08;97606.53;;;6.25;83.89
81155;BME280;70631;50.436;7.826;2024-02-26T10:57:40;97604.56;;;6.27;83.89
81155;BME280;70631;50.436;7.826;2024-02-26T11:00:07;97603.13;;;6.32;83.80
81155;BME280;70631;50.436;7.826;2024-02-26T11:02:36;97612.88;;;6.32;84.03
81155;BME280;70631;50.436;7.826;2024-02-26T11:05:05;97613.41;;;6.35;83.89
81155;BME280;70631;50.436;7.826;2024-02-26T11:07:32;97615.25;;;6.43;83.83
81155;BME280;70631;50.436;7.826;2024-02-26T11:09:59;97620.84;;;6.40;83.53
81155;BME280;70631;50.436;7.826;2024-02-26T11:12:25;97620.19;;;6.38;83.58
81155;BME280;70631;50.436;7.826;2024-02-26T11:14:50;97621.84;;;6.39;84.06
81155;BME280;70631;50.436;7.826;2024-02-26T11:17:21;97620.38;;;6.44;83.82
81155;BME280;70631;50.436;7.826;2024-02-26T11:19:48;97629.81;;;6.47;83.62
81155;BME280;70631;50.436;7.826;2024-02-26T11:22:14;97639.81;;;6.53;83.68
81155;BME280;70631;50.436;7.826;2024-02-26T11:24:39;97635.69;;;6.59;83.57
81155;BME280;70631;50.436;7.826;2024-02-26T11:27:09;97651.66;;;6.75;83.55
81155;BME280;70631;50.436;7.826;2024-02-26T11:29:43;97644.94;;;6.89;83.79
81155;BME280;70631;50.436;7.826;2024-02-26T11:32:10;97642.69;;;7.02;83.13
81155;BME280;70631;50.436;7.826;2024-02-26T11:34:36;97651.94;;;6.98;82.82
81155;BME280;70631;50.436;7.826;2024-02-26T11:37:11;97633.66;;;6.79;82.51
81155;BME280;70631;50.436;7.826;2024-02-26T11:39:39;97638.63;;;6.82;82.63
81155;BME280;70631;50.436;7.826;2024-02-26T11:42:06;97628.69;;;6.84;82.43
81155;BME280;70631;50.436;7.826;2024-02-26T11:44:32;97627.56;;;6.86;82.04
81155;BME280;70631;50.436;7.826;2024-02-26T11:46:57;97625.41;;;6.90;82.50
81155;BME280;70631;50.436;7.826;2024-02-26T11:51:52;97627.97;;;7.08;82.49
81155;BME280;70631;50.436;7.826;2024-02-26T12:02:49;97643.44;;;7.36;81.56
81155;BME280;70631;50.436;7.826;2024-02-26T12:05:20;97642.00;;;7.42;81.50
81155;BME280;70631;50.436;7.826;2024-02-26T12:07:51;97642.00;;;7.50;81.61
81155;BME280;70631;50.436;7.826;2024-02-26T12:10:26;97646.16;;;7.53;81.45
81155;BME280;70631;50.436;7.826;2024-02-26T12:13:03;97648.13;;;7.51;81.13
81155;BME280;70631;50.436;7.826;2024-02-26T12:15:32;97655.09;;;7.44;81.41
81155;BME280;70631;50.436;7.826;2024-02-26T12:18:01;97643.81;;;7.42;81.38
81155;BME280;70631;50.436;7.826;2024-02-26T12:20:26;97666.28;;;7.29;81.02
81155;BME280;70631;50.436;7.826;2024-02-26T12:22:52;97662.97;;;7.27;81.46
81155;BME280;70631;50.436;7.826;2024-02-26T12:25:20;97667.94;;;7.30;81.84
81155;BME280;70631;50.436;7.826;2024-02-26T12:27:46;97668.78;;;7.31;81.46
81155;BME280;70631;50.436;7.826;2024-02-26T12:30:12;97670.44;;;7.32;81.82
81155;BME280;70631;50.436;7.826;2024-02-26T12:32:37;97672.91;;;7.33;82.07
81155;BME280;70631;50.436;7.826;2024-02-26T12:35:03;97677.28;;;7.43;81.77
81155;BME280;70631;50.436;7.826;2024-02-26T12:37:30;97676.44;;;7.50;81.81
81155;BME280;70631;50.436;7.826;2024-02-26T12:39:55;97680.94;;;7.50;81.40
81155;BME280;70631;50.436;7.826;2024-02-26T12:42:20;97681.91;;;7.49;82.14
81155;BME280;70631;50.436;7.826;2024-02-26T12:44:46;97685.06;;;7.44;81.64
81155;BME280;70631;50.436;7.826;2024-02-26T12:47:12;97683.06;;;7.46;82.03
81155;BME280;70631;50.436;7.826;2024-02-26T12:49:42;97690.19;;;7.46;81.85
81155;BME280;70631;50.436;7.826;2024-02-26T12:52:09;97691.38;;;7.51;81.98
81155;BME280;70631;50.436;7.826;2024-02-26T12:54:35;97694.34;;;7.56;81.47
81155;BME280;70631;50.436;7.826;2024-02-26T12:57:05;97694.34;;;7.56;81.44
81155;BME280;70631;50.436;7.826;2024-02-26T12:59:32;97695.38;;;7.63;81.31
81155;BME280;70631;50.436;7.826;2024-02-26T13:01:59;97695.56;;;7.70;81.46
81155;BME280;70631;50.436;7.826;2024-02-26T13:04:27;97697.22;;;7.71;80.96
81155;BME280;70631;50.436;7.826;2024-02-26T13:06:53;97706.16;;;7.78;81.04
81155;BME280;70631;50.436;7.826;2024-02-26T13:09:18;97706.38;;;7.85;80.24
81155;BME280;70631;50.436;7.826;2024-02-26T13:11:44;97711.19;;;7.89;80.04
81155;BME280;70631;50.436;7.826;2024-02-26T13:14:22;97712.50;;;7.93;80.01